Oakhill, Alabama
Current Conditions -  °F | °C
As of 11:56 PM on Tuesday 27 Jan 2015 (Local Time) from KPRN Reporting Station
Clear Clear  
Wind Chill: 40°   Ceiling: Unl
Heat Index: 40°   Visibility: 10mi
Dew Point: 31°   Wind: 3mph
Humidity: 70%   Direction: 300°WNW
Pressure: 30.14"   Gusts: NA
Location:  31.9217°N, 87.0814°W
Report Text: KPRN 280556Z AUTO 30003KT 10SM CLR 04/M01 A3014 RMK AO2 SLP205 T00441006 10128 20039 401721011 51008
Loading
Personal Weather Stations






























Interactive Weather Map New forecast layout! Learn more

10-Day Weather Forecast

Advertisements
Track Severe Weather on mobile